sensor_id;sensor_type;location;lat;lon;timestamp;pressure;altitude;pressure_sealevel;temperature;humidity
51603;BME280;37954;51.980;5.850;2023-04-24T00:02:58;99545.63;;;10.99;90.28
51603;BME280;37954;51.980;5.850;2023-04-24T00:07:11;99542.31;;;10.92;90.05
51603;BME280;37954;51.980;5.850;2023-04-24T00:11:22;99531.25;;;10.83;90.27
51603;BME280;37954;51.980;5.850;2023-04-24T00:15:34;99524.00;;;10.84;90.33
51603;BME280;37954;51.980;5.850;2023-04-24T00:19:47;99552.06;;;10.98;90.09
51603;BME280;37954;51.980;5.850;2023-04-24T00:23:59;99555.97;;;10.85;90.37
51603;BME280;37954;51.980;5.850;2023-04-24T00:28:11;99566.72;;;10.85;90.62
51603;BME280;37954;51.980;5.850;2023-04-24T00:32:22;99571.53;;;10.83;90.69
51603;BME280;37954;51.980;5.850;2023-04-24T00:36:34;99565.59;;;10.81;90.61
51603;BME280;37954;51.980;5.850;2023-04-24T00:40:46;99570.91;;;10.76;90.64
51603;BME280;37954;51.980;5.850;2023-04-24T00:45:00;99573.34;;;10.77;90.63
51603;BME280;37954;51.980;5.850;2023-04-24T00:49:13;99565.53;;;10.76;90.90
51603;BME280;37954;51.980;5.850;2023-04-24T00:53:25;99563.97;;;10.80;90.93
51603;BME280;37954;51.980;5.850;2023-04-24T00:57:37;99563.97;;;10.80;90.67
51603;BME280;37954;51.980;5.850;2023-04-24T01:01:50;99561.78;;;10.77;90.96
51603;BME280;37954;51.980;5.850;2023-04-24T01:06:04;99538.22;;;10.57;91.61
51603;BME280;37954;51.980;5.850;2023-04-24T01:10:16;99555.88;;;10.75;91.51
51603;BME280;37954;51.980;5.850;2023-04-24T01:14:29;99574.28;;;10.88;91.60
51603;BME280;37954;51.980;5.850;2023-04-24T01:18:41;99562.16;;;10.86;91.66
51603;BME280;37954;51.980;5.850;2023-04-24T01:22:55;99541.38;;;10.76;91.49
51603;BME280;37954;51.980;5.850;2023-04-24T01:27:09;99572.09;;;10.85;91.16
51603;BME280;37954;51.980;5.850;2023-04-24T01:31:21;99552.84;;;10.66;91.33
51603;BME280;37954;51.980;5.850;2023-04-24T01:35:33;99557.16;;;10.67;91.51
51603;BME280;37954;51.980;5.850;2023-04-24T01:39:45;99573.34;;;10.77;91.53
51603;BME280;37954;51.980;5.850;2023-04-24T01:43:58;99565.25;;;10.72;91.63
51603;BME280;37954;51.980;5.850;2023-04-24T01:48:11;99570.63;;;10.72;91.78
51603;BME280;37954;51.980;5.850;2023-04-24T01:52:23;99543.09;;;10.60;92.09
51603;BME280;37954;51.980;5.850;2023-04-24T01:56:36;99564.97;;;10.74;92.53
51603;BME280;37954;51.980;5.850;2023-04-24T02:00:52;99559.09;;;10.72;92.46
51603;BME280;37954;51.980;5.850;2023-04-24T02:05:06;99559.16;;;10.82;92.33
51603;BME280;37954;51.980;5.850;2023-04-24T02:09:20;99541.91;;;10.73;92.56
51603;BME280;37954;51.980;5.850;2023-04-24T02:13:32;99522.78;;;10.69;92.51
51603;BME280;37954;51.980;5.850;2023-04-24T02:17:45;99552.44;;;10.79;92.50
51603;BME280;37954;51.980;5.850;2023-04-24T02:21:57;99544.13;;;10.81;92.49
51603;BME280;37954;51.980;5.850;2023-04-24T02:26:08;99556.53;;;10.87;92.43
51603;BME280;37954;51.980;5.850;2023-04-24T02:30:20;99566.00;;;10.95;92.40
51603;BME280;37954;51.980;5.850;2023-04-24T02:34:32;99540.03;;;10.73;92.68
51603;BME280;37954;51.980;5.850;2023-04-24T02:38:44;99543.81;;;10.77;92.67
51603;BME280;37954;51.980;5.850;2023-04-24T02:42:57;99547.00;;;10.74;92.79
51603;BME280;37954;51.980;5.850;2023-04-24T02:47:08;99546.34;;;10.62;92.84
51603;BME280;37954;51.980;5.850;2023-04-24T02:51:20;99566.31;;;10.71;92.97
51603;BME280;37954;51.980;5.850;2023-04-24T02:55:32;99557.47;;;10.71;93.20
51603;BME280;37954;51.980;5.850;2023-04-24T02:59:44;99579.22;;;10.74;93.68
51603;BME280;37954;51.980;5.850;2023-04-24T03:03:56;99564.69;;;10.70;93.38
51603;BME280;37954;51.980;5.850;2023-04-24T03:08:08;99566.31;;;10.71;93.61
51603;BME280;37954;51.980;5.850;2023-04-24T03:12:20;99575.78;;;10.79;93.45
51603;BME280;37954;51.980;5.850;2023-04-24T03:16:32;99560.66;;;10.68;93.53
51603;BME280;37954;51.980;5.850;2023-04-24T03:20:47;99572.53;;;10.77;93.37
51603;BME280;37954;51.980;5.850;2023-04-24T03:25:00;99568.22;;;10.76;93.76
51603;BME280;37954;51.980;5.850;2023-04-24T03:29:11;99563.56;;;10.66;93.72
51603;BME280;37954;51.980;5.850;2023-04-24T03:33:23;99544.50;;;10.41;93.88
51603;BME280;37954;51.980;5.850;2023-04-24T03:37:43;99569.91;;;10.55;93.76
51603;BME280;37954;51.980;5.850;2023-04-24T03:42:15;99596.06;;;10.65;94.00
51603;BME280;37954;51.980;5.850;2023-04-24T03:46:35;99574.97;;;10.52;93.84
51603;BME280;37954;51.980;5.850;2023-04-24T03:50:47;99561.72;;;10.45;93.79
51603;BME280;37954;51.980;5.850;2023-04-24T03:54:59;99587.09;;;10.54;93.80
51603;BME280;37954;51.980;5.850;2023-04-24T03:59:12;99594.94;;;10.61;93.80
51603;BME280;37954;51.980;5.850;2023-04-24T04:03:28;99589.00;;;10.59;93.75
51603;BME280;37954;51.980;5.850;2023-04-24T04:07:40;99573.28;;;10.45;93.54
51603;BME280;37954;51.980;5.850;2023-04-24T04:11:52;99594.31;;;10.54;93.38
51603;BME280;37954;51.980;5.850;2023-04-24T04:16:05;99605.81;;;10.49;93.17
51603;BME280;37954;51.980;5.850;2023-04-24T04:20:20;99596.06;;;10.43;92.71
51603;BME280;37954;51.980;5.850;2023-04-24T04:24:31;99599.56;;;10.43;92.51
51603;BME280;37954;51.980;5.850;2023-04-24T04:28:43;99573.84;;;10.26;92.68
51603;BME280;37954;51.980;5.850;2023-04-24T04:32:56;99598.44;;;10.39;92.52
51603;BME280;37954;51.980;5.850;2023-04-24T04:37:08;99592.78;;;10.36;92.21
51603;BME280;37954;51.980;5.850;2023-04-24T04:41:31;99587.09;;;10.32;92.63
51603;BME280;37954;51.980;5.850;2023-04-24T04:45:44;99579.16;;;10.21;92.53
51603;BME280;37954;51.980;5.850;2023-04-24T04:50:15;99593.94;;;10.23;92.51
51603;BME280;37954;51.980;5.850;2023-04-24T04:54:28;99583.38;;;10.17;92.57
51603;BME280;37954;51.980;5.850;2023-04-24T04:58:41;99579.81;;;10.11;92.53
51603;BME280;37954;51.980;5.850;2023-04-24T05:02:56;99611.09;;;10.22;92.55
51603;BME280;37954;51.980;5.850;2023-04-24T05:07:28;99604.03;;;10.16;92.72
51603;BME280;37954;51.980;5.850;2023-04-24T05:11:40;99603.94;;;10.11;92.96
51603;BME280;37954;51.980;5.850;2023-04-24T05:16:39;99628.09;;;10.28;92.71
51603;BME280;37954;51.980;5.850;2023-04-24T05:20:51;99607.63;;;10.05;93.14
51603;BME280;37954;51.980;5.850;2023-04-24T05:25:05;99644.69;;;10.25;93.12
51603;BME280;37954;51.980;5.850;2023-04-24T05:29:22;99653.53;;;10.25;93.05
51603;BME280;37954;51.980;5.850;2023-04-24T05:33:35;99639.06;;;10.26;93.07
51603;BME280;37954;51.980;5.850;2023-04-24T05:37:47;99635.16;;;10.17;92.89
51603;BME280;37954;51.980;5.850;2023-04-24T05:42:01;99665.81;;;10.38;92.91
51603;BME280;37954;51.980;5.850;2023-04-24T05:46:13;99656.31;;;10.30;92.61
51603;BME280;37954;51.980;5.850;2023-04-24T05:50:25;99630.28;;;10.14;92.72
51603;BME280;37954;51.980;5.850;2023-04-24T05:54:37;99653.88;;;10.29;92.61
51603;BME280;37954;51.980;5.850;2023-04-24T05:58:50;99665.03;;;10.42;92.91
51603;BME280;37954;51.980;5.850;2023-04-24T06:03:03;99679.81;;;10.62;93.24
51603;BME280;37954;51.980;5.850;2023-04-24T06:07:16;99656.25;;;10.47;93.00
51603;BME280;37954;51.980;5.850;2023-04-24T06:11:31;99657.25;;;10.41;92.65
51603;BME280;37954;51.980;5.850;2023-04-24T06:15:44;99698.84;;;10.60;92.74
51603;BME280;37954;51.980;5.850;2023-04-24T06:20:10;99701.53;;;10.60;92.72
51603;BME280;37954;51.980;5.850;2023-04-24T06:24:27;99712.16;;;10.72;92.52
51603;BME280;37954;51.980;5.850;2023-04-24T06:28:39;99714.09;;;10.76;92.35
51603;BME280;37954;51.980;5.850;2023-04-24T06:32:52;99703.59;;;10.75;92.33
51603;BME280;37954;51.980;5.850;2023-04-24T06:37:07;99705.78;;;10.78;92.44
51603;BME280;37954;51.980;5.850;2023-04-24T06:41:19;99748.28;;;11.03;92.47
51603;BME280;37954;51.980;5.850;2023-04-24T06:45:31;99739.66;;;11.01;92.45
51603;BME280;37954;51.980;5.850;2023-04-24T06:49:42;99727.44;;;10.93;92.39
51603;BME280;37954;51.980;5.850;2023-04-24T06:53:55;99740.53;;;11.06;91.94
51603;BME280;37954;51.980;5.850;2023-04-24T06:58:10;99739.66;;;11.01;92.16
51603;BME280;37954;51.980;5.850;2023-04-24T07:02:25;99768.31;;;11.17;92.15
51603;BME280;37954;51.980;5.850;2023-04-24T07:06:37;99769.38;;;11.16;91.47
51603;BME280;37954;51.980;5.850;2023-04-24T07:10:49;99777.34;;;11.06;91.26
51603;BME280;37954;51.980;5.850;2023-04-24T07:15:02;99770.41;;;10.88;91.21
51603;BME280;37954;51.980;5.850;2023-04-24T07:19:14;99787.00;;;10.85;91.17
51603;BME280;37954;51.980;5.850;2023-04-24T07:23:27;99805.50;;;10.81;91.22
51603;BME280;37954;51.980;5.850;2023-04-24T07:28:05;99777.56;;;10.44;91.11
51603;BME280;37954;51.980;5.850;2023-04-24T07:37:38;99843.53;;;10.57;91.71
51603;BME280;37954;51.980;5.850;2023-04-24T07:43:05;99833.69;;;10.29;92.03
51603;BME280;37954;51.980;5.850;2023-04-24T07:47:34;99863.56;;;10.32;92.32
51603;BME280;37954;51.980;5.850;2023-04-24T07:51:49;99871.91;;;10.19;92.53
51603;BME280;37954;51.980;5.850;2023-04-24T07:56:01;99874.78;;;10.01;93.12
51603;BME280;37954;51.980;5.850;2023-04-24T08:00:13;99872.38;;;9.88;93.05
51603;BME280;37954;51.980;5.850;2023-04-24T08:04:25;99913.41;;;10.00;93.32
51603;BME280;37954;51.980;5.850;2023-04-24T08:08:37;99922.50;;;9.99;93.44
51603;BME280;37954;51.980;5.850;2023-04-24T08:12:49;99927.56;;;9.84;93.28
51603;BME280;37954;51.980;5.850;2023-04-24T08:17:01;99951.09;;;9.93;93.00
51603;BME280;37954;51.980;5.850;2023-04-24T08:21:13;99948.56;;;9.87;93.02
51603;BME280;37954;51.980;5.850;2023-04-24T08:25:28;99978.25;;;9.97;92.74
51603;BME280;37954;51.980;5.850;2023-04-24T08:29:40;99986.44;;;9.90;91.93
51603;BME280;37954;51.980;5.850;2023-04-24T08:33:52;99997.63;;;9.87;92.19
51603;BME280;37954;51.980;5.850;2023-04-24T08:38:04;99991.59;;;9.80;92.29
51603;BME280;37954;51.980;5.850;2023-04-24T08:42:17;99967.97;;;9.65;92.55
51603;BME280;37954;51.980;5.850;2023-04-24T08:46:30;100031.31;;;9.95;92.79
51603;BME280;37954;51.980;5.850;2023-04-24T08:50:42;100012.13;;;9.74;92.45
51603;BME280;37954;51.980;5.850;2023-04-24T08:55:03;100016.91;;;9.84;92.66
51603;BME280;37954;51.980;5.850;2023-04-24T08:59:15;100040.31;;;10.00;92.61
51603;BME280;37954;51.980;5.850;2023-04-24T09:03:28;100032.41;;;9.82;92.48
51603;BME280;37954;51.980;5.850;2023-04-24T09:07:42;100070.41;;;9.79;92.06
51603;BME280;37954;51.980;5.850;2023-04-24T09:11:56;100045.69;;;9.54;92.12
51603;BME280;37954;51.980;5.850;2023-04-24T09:16:08;100064.00;;;9.80;92.43
51603;BME280;37954;51.980;5.850;2023-04-24T09:20:20;100084.13;;;10.06;92.18
51603;BME280;37954;51.980;5.850;2023-04-24T09:24:33;100074.13;;;10.01;91.28
51603;BME280;37954;51.980;5.850;2023-04-24T09:28:45;100104.50;;;10.42;91.02
51603;BME280;37954;51.980;5.850;2023-04-24T09:33:11;100126.75;;;10.66;90.76
51603;BME280;37954;51.980;5.850;2023-04-24T09:37:30;100119.03;;;10.69;89.89
51603;BME280;37954;51.980;5.850;2023-04-24T09:41:50;100151.13;;;10.76;87.94
51603;BME280;37954;51.980;5.850;2023-04-24T09:46:06;100132.81;;;10.73;86.99
51603;BME280;37954;51.980;5.850;2023-04-24T09:50:19;100142.25;;;10.75;86.39
51603;BME280;37954;51.980;5.850;2023-04-24T09:54:32;100142.28;;;10.92;85.86
51603;BME280;37954;51.980;5.850;2023-04-24T09:58:46;100174.06;;;10.95;84.14
51603;BME280;37954;51.980;5.850;2023-04-24T10:02:59;100175.75;;;11.13;84.13
51603;BME280;37954;51.980;5.850;2023-04-24T10:07:11;100181.09;;;11.25;83.07
51603;BME280;37954;51.980;5.850;2023-04-24T10:11:30;100181.38;;;11.57;82.91
51603;BME280;37954;51.980;5.850;2023-04-24T10:15:42;100194.19;;;11.83;81.92
51603;BME280;37954;51.980;5.850;2023-04-24T10:19:54;100199.06;;;12.19;80.57
51603;BME280;37954;51.980;5.850;2023-04-24T10:24:06;100200.00;;;13.12;80.24
51603;BME280;37954;51.980;5.850;2023-04-24T10:28:19;100204.09;;;14.06;78.29
51603;BME280;37954;51.980;5.850;2023-04-24T10:32:30;100214.13;;;14.47;75.19
51603;BME280;37954;51.980;5.850;2023-04-24T10:36:51;100194.06;;;13.96;69.80
51603;BME280;37954;51.980;5.850;2023-04-24T10:41:09;100197.22;;;13.88;69.87
51603;BME280;37954;51.980;5.850;2023-04-24T10:45:23;100204.56;;;13.92;69.44
51603;BME280;37954;51.980;5.850;2023-04-24T10:49:34;100218.50;;;13.79;67.92
51603;BME280;37954;51.980;5.850;2023-04-24T10:53:50;100236.47;;;13.42;66.80
51603;BME280;37954;51.980;5.850;2023-04-24T10:58:03;100245.91;;;13.39;67.77
51603;BME280;37954;51.980;5.850;2023-04-24T11:02:16;100214.56;;;13.33;67.61
51603;BME280;37954;51.980;5.850;2023-04-24T11:06:33;100209.06;;;12.79;67.00
51603;BME280;37954;51.980;5.850;2023-04-24T11:10:57;100249.81;;;12.44;67.38
51603;BME280;37954;51.980;5.850;2023-04-24T11:15:12;100255.13;;;12.06;68.25
51603;BME280;37954;51.980;5.850;2023-04-24T11:19:25;100248.47;;;12.08;69.27
51603;BME280;37954;51.980;5.850;2023-04-24T11:23:37;100270.31;;;12.45;69.72
51603;BME280;37954;51.980;5.850;2023-04-24T11:27:50;100263.28;;;12.44;69.05
51603;BME280;37954;51.980;5.850;2023-04-24T11:32:23;100263.66;;;12.53;68.64
51603;BME280;37954;51.980;5.850;2023-04-24T11:36:36;100294.97;;;12.76;68.37
51603;BME280;37954;51.980;5.850;2023-04-24T11:40:48;100277.84;;;12.65;67.54
51603;BME280;37954;51.980;5.850;2023-04-24T11:45:08;100290.16;;;13.00;66.86
51603;BME280;37954;51.980;5.850;2023-04-24T11:49:20;100305.53;;;13.16;66.01
51603;BME280;37954;51.980;5.850;2023-04-24T11:53:32;100283.13;;;12.77;64.69
51603;BME280;37954;51.980;5.850;2023-04-24T11:57:46;100299.91;;;12.62;65.31
51603;BME280;37954;51.980;5.850;2023-04-24T12:01:58;100313.91;;;12.26;66.68
51603;BME280;37954;51.980;5.850;2023-04-24T12:06:11;100348.03;;;11.92;68.69
51603;BME280;37954;51.980;5.850;2023-04-24T12:10:25;100326.75;;;11.50;70.63
51603;BME280;37954;51.980;5.850;2023-04-24T12:14:48;100335.84;;;11.61;73.00
51603;BME280;37954;51.980;5.850;2023-04-24T12:19:01;100333.56;;;11.81;73.57
51603;BME280;37954;51.980;5.850;2023-04-24T12:23:13;100354.56;;;12.12;73.50
51603;BME280;37954;51.980;5.850;2023-04-24T12:27:25;100352.78;;;12.18;73.05
51603;BME280;37954;51.980;5.850;2023-04-24T12:31:37;100345.88;;;12.39;72.05
51603;BME280;37954;51.980;5.850;2023-04-24T12:35:52;100354.53;;;12.74;71.27
51603;BME280;37954;51.980;5.850;2023-04-24T12:40:09;100363.69;;;13.12;70.18
51603;BME280;37954;51.980;5.850;2023-04-24T12:44:37;100362.47;;;13.19;68.40
51603;BME280;37954;51.980;5.850;2023-04-24T12:48:51;100375.78;;;13.26;67.59
51603;BME280;37954;51.980;5.850;2023-04-24T12:53:03;100382.31;;;13.13;66.79
51603;BME280;37954;51.980;5.850;2023-04-24T12:57:15;100369.78;;;12.85;66.17
51603;BME280;37954;51.980;5.850;2023-04-24T13:01:27;100395.31;;;13.00;66.45
51603;BME280;37954;51.980;5.850;2023-04-24T13:05:39;100391.47;;;13.12;66.85
51603;BME280;37954;51.980;5.850;2023-04-24T13:09:53;100375.88;;;13.14;66.40
51603;BME280;37954;51.980;5.850;2023-04-24T13:14:05;100378.28;;;13.33;66.01
51603;BME280;37954;51.980;5.850;2023-04-24T13:18:17;100393.09;;;13.30;65.10
51603;BME280;37954;51.980;5.850;2023-04-24T13:22:29;100378.16;;;13.22;64.11
51603;BME280;37954;51.980;5.850;2023-04-24T13:26:41;100379.66;;;12.97;64.13
51603;BME280;37954;51.980;5.850;2023-04-24T13:30:53;100406.53;;;12.75;62.99
51603;BME280;37954;51.980;5.850;2023-04-24T13:35:05;100385.63;;;12.32;62.79
51603;BME280;37954;51.980;5.850;2023-04-24T13:39:16;100405.00;;;12.17;63.30
51603;BME280;37954;51.980;5.850;2023-04-24T13:43:33;100430.91;;;12.35;63.63
51603;BME280;37954;51.980;5.850;2023-04-24T13:47:45;100426.22;;;12.42;63.92
51603;BME280;37954;51.980;5.850;2023-04-24T13:51:57;100424.59;;;12.58;64.66
51603;BME280;37954;51.980;5.850;2023-04-24T13:56:09;100423.06;;;12.33;64.13
51603;BME280;37954;51.980;5.850;2023-04-24T14:00:21;100415.03;;;12.67;64.00
51603;BME280;37954;51.980;5.850;2023-04-24T14:04:33;100402.78;;;12.93;63.21
51603;BME280;37954;51.980;5.850;2023-04-24T14:08:45;100428.47;;;13.00;60.61
51603;BME280;37954;51.980;5.850;2023-04-24T14:12:57;100419.44;;;12.89;59.38
51603;BME280;37954;51.980;5.850;2023-04-24T14:17:09;100416.63;;;13.01;58.71
51603;BME280;37954;51.980;5.850;2023-04-24T14:21:21;100417.63;;;13.12;59.61
51603;BME280;37954;51.980;5.850;2023-04-24T14:25:32;100417.13;;;13.32;59.07
51603;BME280;37954;51.980;5.850;2023-04-24T14:29:45;100410.41;;;13.56;59.39
51603;BME280;37954;51.980;5.850;2023-04-24T14:33:57;100413.28;;;13.71;57.82
51603;BME280;37954;51.980;5.850;2023-04-24T14:38:09;100389.84;;;13.50;55.59
51603;BME280;37954;51.980;5.850;2023-04-24T14:42:23;100408.59;;;13.40;54.99
51603;BME280;37954;51.980;5.850;2023-04-24T14:46:56;100414.94;;;13.12;55.91
51603;BME280;37954;51.980;5.850;2023-04-24T14:51:16;100412.00;;;12.97;56.68
51603;BME280;37954;51.980;5.850;2023-04-24T14:55:28;100416.41;;;13.03;56.74
51603;BME280;37954;51.980;5.850;2023-04-24T14:59:40;100442.31;;;13.20;56.37
51603;BME280;37954;51.980;5.850;2023-04-24T15:03:52;100436.09;;;12.86;55.25
51603;BME280;37954;51.980;5.850;2023-04-24T15:08:04;100455.16;;;12.97;55.60
51603;BME280;37954;51.980;5.850;2023-04-24T15:12:16;100429.84;;;12.81;55.42
51603;BME280;37954;51.980;5.850;2023-04-24T15:16:31;100456.44;;;12.77;55.05
51603;BME280;37954;51.980;5.850;2023-04-24T15:20:43;100432.47;;;12.47;55.29
51603;BME280;37954;51.980;5.850;2023-04-24T15:24:55;100436.06;;;12.36;55.82
51603;BME280;37954;51.980;5.850;2023-04-24T15:29:07;100478.63;;;12.51;55.59
51603;BME280;37954;51.980;5.850;2023-04-24T15:33:19;100472.97;;;12.36;55.97
51603;BME280;37954;51.980;5.850;2023-04-24T15:37:31;100483.25;;;12.39;55.67
51603;BME280;37954;51.980;5.850;2023-04-24T15:41:43;100477.38;;;12.42;56.33
51603;BME280;37954;51.980;5.850;2023-04-24T15:45:55;100474.97;;;12.57;56.96
51603;BME280;37954;51.980;5.850;2023-04-24T15:50:13;100481.25;;;12.46;56.88
51603;BME280;37954;51.980;5.850;2023-04-24T15:54:26;100494.66;;;12.29;57.65
51603;BME280;37954;51.980;5.850;2023-04-24T15:58:38;100478.44;;;12.12;58.62
51603;BME280;37954;51.980;5.850;2023-04-24T16:02:51;100487.31;;;12.25;59.05
51603;BME280;37954;51.980;5.850;2023-04-24T16:07:03;100483.25;;;12.39;58.51
51603;BME280;37954;51.980;5.850;2023-04-24T16:11:15;100473.13;;;12.29;58.79
51603;BME280;37954;51.980;5.850;2023-04-24T16:15:27;100479.31;;;12.30;59.17
51603;BME280;37954;51.980;5.850;2023-04-24T16:19:39;100488.41;;;12.40;59.64
51603;BME280;37954;51.980;5.850;2023-04-24T16:23:53;100495.38;;;12.25;60.34
51603;BME280;37954;51.980;5.850;2023-04-24T16:28:05;100500.06;;;12.17;60.78
51603;BME280;37954;51.980;5.850;2023-04-24T16:32:17;100495.97;;;12.27;61.53
51603;BME280;37954;51.980;5.850;2023-04-24T16:36:29;100468.09;;;12.21;61.44
51603;BME280;37954;51.980;5.850;2023-04-24T16:40:41;100504.50;;;12.24;58.50
51603;BME280;37954;51.980;5.850;2023-04-24T16:44:53;100502.72;;;12.01;57.92
51603;BME280;37954;51.980;5.850;2023-04-24T16:49:05;100489.41;;;11.82;57.45
51603;BME280;37954;51.980;5.850;2023-04-24T16:53:17;100516.56;;;11.81;57.01
51603;BME280;37954;51.980;5.850;2023-04-24T16:57:29;100508.47;;;11.69;57.34
51603;BME280;37954;51.980;5.850;2023-04-24T17:01:41;100525.09;;;11.66;57.43
51603;BME280;37954;51.980;5.850;2023-04-24T17:05:57;100518.44;;;11.45;57.44
51603;BME280;37954;51.980;5.850;2023-04-24T17:10:09;100527.09;;;11.36;57.85
51603;BME280;37954;51.980;5.850;2023-04-24T17:14:21;100500.78;;;11.14;58.39
51603;BME280;37954;51.980;5.850;2023-04-24T17:18:56;100540.41;;;11.31;58.30
51603;BME280;37954;51.980;5.850;2023-04-24T17:23:08;100498.44;;;11.06;58.28
51603;BME280;37954;51.980;5.850;2023-04-24T17:27:22;100529.06;;;11.17;58.58
51603;BME280;37954;51.980;5.850;2023-04-24T17:31:35;100542.41;;;11.24;58.79
51603;BME280;37954;51.980;5.850;2023-04-24T17:35:47;100539.22;;;11.15;59.08
51603;BME280;37954;51.980;5.850;2023-04-24T17:40:01;100510.44;;;10.92;58.55
51603;BME280;37954;51.980;5.850;2023-04-24T17:44:13;100540.25;;;10.91;58.49
51603;BME280;37954;51.980;5.850;2023-04-24T17:48:25;100515.97;;;10.56;59.14
51603;BME280;37954;51.980;5.850;2023-04-24T17:52:40;100538.84;;;10.58;59.45
51603;BME280;37954;51.980;5.850;2023-04-24T17:56:51;100518.81;;;10.42;60.26
51603;BME280;37954;51.980;5.850;2023-04-24T18:01:04;100533.59;;;10.52;60.28
51603;BME280;37954;51.980;5.850;2023-04-24T18:05:16;100533.38;;;10.53;60.91
51603;BME280;37954;51.980;5.850;2023-04-24T18:09:29;100559.88;;;10.61;61.00
51603;BME280;37954;51.980;5.850;2023-04-24T18:13:44;100536.00;;;10.23;61.02
51603;BME280;37954;51.980;5.850;2023-04-24T18:17:57;100576.66;;;10.27;61.64
51603;BME280;37954;51.980;5.850;2023-04-24T18:22:09;100521.78;;;9.86;61.71
51603;BME280;37954;51.980;5.850;2023-04-24T18:26:21;100528.53;;;9.70;62.29
51603;BME280;37954;51.980;5.850;2023-04-24T18:30:33;100565.44;;;9.75;63.22
51603;BME280;37954;51.980;5.850;2023-04-24T18:34:45;100546.03;;;9.55;63.51
51603;BME280;37954;51.980;5.850;2023-04-24T18:38:57;100561.69;;;9.58;63.87
51603;BME280;37954;51.980;5.850;2023-04-24T18:43:10;100565.91;;;9.47;64.20
51603;BME280;37954;51.980;5.850;2023-04-24T18:47:21;100544.44;;;9.29;64.76
51603;BME280;37954;51.980;5.850;2023-04-24T18:51:33;100580.59;;;9.45;65.39
51603;BME280;37954;51.980;5.850;2023-04-24T18:56:03;100569.81;;;9.26;65.84
51603;BME280;37954;51.980;5.850;2023-04-24T19:00:15;100587.09;;;9.30;65.88
51603;BME280;37954;51.980;5.850;2023-04-24T19:04:28;100580.34;;;9.21;66.44
51603;BME280;37954;51.980;5.850;2023-04-24T19:08:40;100607.16;;;9.21;67.18
51603;BME280;37954;51.980;5.850;2023-04-24T19:12:53;100602.69;;;9.15;67.91
51603;BME280;37954;51.980;5.850;2023-04-24T19:17:07;100605.47;;;9.27;68.16
51603;BME280;37954;51.980;5.850;2023-04-24T19:21:20;100612.25;;;9.29;68.45
51603;BME280;37954;51.980;5.850;2023-04-24T19:25:33;100614.94;;;9.29;68.67
51603;BME280;37954;51.980;5.850;2023-04-24T19:29:45;100623.59;;;9.31;68.83
51603;BME280;37954;51.980;5.850;2023-04-24T19:33:57;100630.75;;;9.37;69.44
51603;BME280;37954;51.980;5.850;2023-04-24T19:38:09;100612.31;;;9.23;69.40
51603;BME280;37954;51.980;5.850;2023-04-24T19:42:21;100631.19;;;9.34;69.55
51603;BME280;37954;51.980;5.850;2023-04-24T19:46:46;100619.31;;;9.24;69.47
51603;BME280;37954;51.980;5.850;2023-04-24T19:50:59;100628.00;;;9.19;69.79
51603;BME280;37954;51.980;5.850;2023-04-24T19:55:11;100614.47;;;9.07;70.35
51603;BME280;37954;51.980;5.850;2023-04-24T19:59:25;100635.66;;;9.16;70.81
51603;BME280;37954;51.980;5.850;2023-04-24T20:03:47;100630.72;;;9.13;70.95
51603;BME280;37954;51.980;5.850;2023-04-24T20:08:09;100601.03;;;8.83;71.28
51603;BME280;37954;51.980;5.850;2023-04-24T20:12:41;100620.59;;;8.83;71.73
51603;BME280;37954;51.980;5.850;2023-04-24T20:17:50;100639.53;;;8.88;71.95
51603;BME280;37954;51.980;5.850;2023-04-24T20:22:02;100646.94;;;8.86;72.52
51603;BME280;37954;51.980;5.850;2023-04-24T20:26:14;100647.41;;;8.77;73.01
51603;BME280;37954;51.980;5.850;2023-04-24T20:30:39;100612.34;;;8.47;73.35
51603;BME280;37954;51.980;5.850;2023-04-24T20:35:53;100634.94;;;8.57;73.53
51603;BME280;37954;51.980;5.850;2023-04-24T20:40:08;100639.28;;;8.52;74.22
51603;BME280;37954;51.980;5.850;2023-04-24T20:44:23;100640.38;;;8.37;74.23
51603;BME280;37954;51.980;5.850;2023-04-24T20:48:41;100654.16;;;8.41;74.94
51603;BME280;37954;51.980;5.850;2023-04-24T20:52:53;100628.88;;;8.17;74.71
51603;BME280;37954;51.980;5.850;2023-04-24T20:57:04;100628.88;;;8.17;75.07
51603;BME280;37954;51.980;5.850;2023-04-24T21:01:16;100628.69;;;8.12;75.32
51603;BME280;37954;51.980;5.850;2023-04-24T21:05:28;100637.34;;;8.08;76.04
51603;BME280;37954;51.980;5.850;2023-04-24T21:09:40;100637.34;;;8.08;76.77
51603;BME280;37954;51.980;5.850;2023-04-24T21:13:52;100632.81;;;8.01;76.56
51603;BME280;37954;51.980;5.850;2023-04-24T21:18:03;100639.59;;;8.11;77.21
51603;BME280;37954;51.980;5.850;2023-04-24T21:22:16;100645.97;;;8.10;77.54
51603;BME280;37954;51.980;5.850;2023-04-24T21:26:27;100659.78;;;8.13;78.15
51603;BME280;37954;51.980;5.850;2023-04-24T21:30:39;100634.84;;;8.19;78.49
51603;BME280;37954;51.980;5.850;2023-04-24T21:34:51;100627.44;;;8.15;78.34
51603;BME280;37954;51.980;5.850;2023-04-24T21:39:03;100639.38;;;8.19;79.05
51603;BME280;37954;51.980;5.850;2023-04-24T21:43:15;100616.56;;;8.10;79.13
51603;BME280;37954;51.980;5.850;2023-04-24T21:47:27;100636.47;;;8.20;79.92
51603;BME280;37954;51.980;5.850;2023-04-24T21:51:39;100654.16;;;8.34;80.03
51603;BME280;37954;51.980;5.850;2023-04-24T21:55:51;100641.00;;;8.33;80.33
51603;BME280;37954;51.980;5.850;2023-04-24T22:00:04;100635.66;;;8.20;80.46
51603;BME280;37954;51.980;5.850;2023-04-24T22:04:18;100627.22;;;8.16;80.72
51603;BME280;37954;51.980;5.850;2023-04-24T22:08:33;100643.69;;;8.20;81.04
51603;BME280;37954;51.980;5.850;2023-04-24T22:12:44;100646.75;;;8.30;80.96
51603;BME280;37954;51.980;5.850;2023-04-24T22:16:56;100640.78;;;8.28;81.10
51603;BME280;37954;51.980;5.850;2023-04-24T22:21:09;100660.13;;;8.43;81.88
51603;BME280;37954;51.980;5.850;2023-04-24T22:25:21;100628.03;;;8.23;82.20
51603;BME280;37954;51.980;5.850;2023-04-24T22:29:33;100646.13;;;8.34;82.33